sensor_id;sensor_type;location;lat;lon;timestamp;P1;durP1;ratioP1;P2;durP2;ratioP2
51010;SDS011;37038;50.182;8.624;2023-05-23T00:01:42;49.88;;;42.95;;
51010;SDS011;37038;50.182;8.624;2023-05-23T00:04:31;50.28;;;41.92;;
51010;SDS011;37038;50.182;8.624;2023-05-23T00:07:19;47.25;;;38.97;;
51010;SDS011;37038;50.182;8.624;2023-05-23T00:10:07;47.75;;;40.38;;
51010;SDS011;37038;50.182;8.624;2023-05-23T00:12:54;44.05;;;37.75;;
51010;SDS011;37038;50.182;8.624;2023-05-23T00:15:44;42.38;;;35.67;;
51010;SDS011;37038;50.182;8.624;2023-05-23T00:18:31;40.20;;;34.72;;
51010;SDS011;37038;50.182;8.624;2023-05-23T00:21:19;40.83;;;35.50;;
51010;SDS011;37038;50.182;8.624;2023-05-23T00:24:06;37.88;;;33.42;;
51010;SDS011;37038;50.182;8.624;2023-05-23T00:26:56;38.88;;;33.38;;
51010;SDS011;37038;50.182;8.624;2023-05-23T00:29:44;37.47;;;33.63;;
51010;SDS011;37038;50.182;8.624;2023-05-23T00:32:32;39.88;;;33.03;;
51010;SDS011;37038;50.182;8.624;2023-05-23T00:35:21;37.70;;;33.75;;
51010;SDS011;37038;50.182;8.624;2023-05-23T00:38:12;39.63;;;34.47;;
51010;SDS011;37038;50.182;8.624;2023-05-23T00:41:00;40.00;;;34.83;;
51010;SDS011;37038;50.182;8.624;2023-05-23T00:43:48;40.63;;;35.90;;
51010;SDS011;37038;50.182;8.624;2023-05-23T00:46:36;47.03;;;37.67;;
51010;SDS011;37038;50.182;8.624;2023-05-23T00:49:24;43.70;;;37.50;;
51010;SDS011;37038;50.182;8.624;2023-05-23T00:52:14;45.80;;;37.53;;
51010;SDS011;37038;50.182;8.624;2023-05-23T00:55:03;45.78;;;38.33;;
51010;SDS011;37038;50.182;8.624;2023-05-23T00:57:52;48.10;;;41.95;;
51010;SDS011;37038;50.182;8.624;2023-05-23T01:00:43;50.05;;;39.92;;
51010;SDS011;37038;50.182;8.624;2023-05-23T01:03:31;47.55;;;41.33;;
51010;SDS011;37038;50.182;8.624;2023-05-23T01:06:18;46.15;;;39.65;;
51010;SDS011;37038;50.182;8.624;2023-05-23T01:09:06;44.75;;;39.85;;
51010;SDS011;37038;50.182;8.624;2023-05-23T01:18:07;43.72;;;37.60;;
51010;SDS011;37038;50.182;8.624;2023-05-23T01:21:02;40.63;;;36.13;;
51010;SDS011;37038;50.182;8.624;2023-05-23T01:29:55;38.40;;;34.42;;
51010;SDS011;37038;50.182;8.624;2023-05-23T01:32:45;38.53;;;34.33;;
51010;SDS011;37038;50.182;8.624;2023-05-23T01:35:35;37.10;;;33.35;;
51010;SDS011;37038;50.182;8.624;2023-05-23T01:38:23;39.00;;;32.97;;
51010;SDS011;37038;50.182;8.624;2023-05-23T01:41:11;39.65;;;34.00;;
51010;SDS011;37038;50.182;8.624;2023-05-23T01:43:58;37.88;;;33.83;;
51010;SDS011;37038;50.182;8.624;2023-05-23T01:46:46;37.60;;;33.75;;
51010;SDS011;37038;50.182;8.624;2023-05-23T01:49:34;35.55;;;31.98;;
51010;SDS011;37038;50.182;8.624;2023-05-23T01:52:23;36.05;;;32.55;;
51010;SDS011;37038;50.182;8.624;2023-05-23T01:55:12;35.40;;;31.60;;
51010;SDS011;37038;50.182;8.624;2023-05-23T01:58:08;35.40;;;31.63;;
51010;SDS011;37038;50.182;8.624;2023-05-23T02:00:56;36.75;;;32.95;;
51010;SDS011;37038;50.182;8.624;2023-05-23T02:03:44;37.50;;;33.58;;
51010;SDS011;37038;50.182;8.624;2023-05-23T02:06:32;37.63;;;33.85;;
51010;SDS011;37038;50.182;8.624;2023-05-23T02:09:20;36.80;;;32.63;;
51010;SDS011;37038;50.182;8.624;2023-05-23T02:12:07;33.17;;;29.88;;
51010;SDS011;37038;50.182;8.624;2023-05-23T02:14:56;33.33;;;29.77;;
51010;SDS011;37038;50.182;8.624;2023-05-23T02:17:43;34.53;;;30.83;;
51010;SDS011;37038;50.182;8.624;2023-05-23T02:20:33;34.10;;;30.40;;
51010;SDS011;37038;50.182;8.624;2023-05-23T02:23:21;32.78;;;29.35;;
51010;SDS011;37038;50.182;8.624;2023-05-23T02:26:09;31.60;;;28.27;;
51010;SDS011;37038;50.182;8.624;2023-05-23T02:28:56;32.45;;;27.48;;
51010;SDS011;37038;50.182;8.624;2023-05-23T02:31:44;30.13;;;27.17;;
51010;SDS011;37038;50.182;8.624;2023-05-23T02:34:32;30.40;;;27.52;;
51010;SDS011;37038;50.182;8.624;2023-05-23T02:37:20;23.92;;;21.63;;
51010;SDS011;37038;50.182;8.624;2023-05-23T02:40:07;22.38;;;20.08;;
51010;SDS011;37038;50.182;8.624;2023-05-23T02:42:55;23.95;;;21.45;;
51010;SDS011;37038;50.182;8.624;2023-05-23T02:45:43;22.85;;;19.17;;
51010;SDS011;37038;50.182;8.624;2023-05-23T02:48:31;21.17;;;18.95;;
51010;SDS011;37038;50.182;8.624;2023-05-23T02:51:18;22.55;;;20.15;;
51010;SDS011;37038;50.182;8.624;2023-05-23T02:54:06;21.77;;;19.45;;
51010;SDS011;37038;50.182;8.624;2023-05-23T02:56:54;19.50;;;17.70;;
51010;SDS011;37038;50.182;8.624;2023-05-23T02:59:41;20.65;;;18.75;;
51010;SDS011;37038;50.182;8.624;2023-05-23T03:02:29;22.42;;;19.73;;
51010;SDS011;37038;50.182;8.624;2023-05-23T03:05:17;20.10;;;17.83;;
51010;SDS011;37038;50.182;8.624;2023-05-23T03:08:05;22.15;;;19.77;;
51010;SDS011;37038;50.182;8.624;2023-05-23T03:10:52;21.23;;;19.20;;
51010;SDS011;37038;50.182;8.624;2023-05-23T03:13:40;22.40;;;19.80;;
51010;SDS011;37038;50.182;8.624;2023-05-23T03:16:28;23.88;;;19.30;;
51010;SDS011;37038;50.182;8.624;2023-05-23T03:19:16;21.17;;;18.92;;
51010;SDS011;37038;50.182;8.624;2023-05-23T03:22:04;19.73;;;17.65;;
51010;SDS011;37038;50.182;8.624;2023-05-23T03:24:52;21.27;;;19.20;;
51010;SDS011;37038;50.182;8.624;2023-05-23T03:27:39;20.65;;;18.70;;
51010;SDS011;37038;50.182;8.624;2023-05-23T03:30:27;20.77;;;18.58;;
51010;SDS011;37038;50.182;8.624;2023-05-23T03:33:15;19.30;;;17.50;;
51010;SDS011;37038;50.182;8.624;2023-05-23T03:36:03;19.92;;;17.92;;
51010;SDS011;37038;50.182;8.624;2023-05-23T03:38:51;17.63;;;15.93;;
51010;SDS011;37038;50.182;8.624;2023-05-23T03:41:39;17.85;;;16.00;;
51010;SDS011;37038;50.182;8.624;2023-05-23T03:44:28;14.25;;;12.88;;
51010;SDS011;37038;50.182;8.624;2023-05-23T03:47:16;16.92;;;13.68;;
51010;SDS011;37038;50.182;8.624;2023-05-23T03:50:04;17.13;;;13.38;;
51010;SDS011;37038;50.182;8.624;2023-05-23T03:52:52;16.33;;;13.85;;
51010;SDS011;37038;50.182;8.624;2023-05-23T03:55:40;15.05;;;13.13;;
51010;SDS011;37038;50.182;8.624;2023-05-23T03:58:29;18.98;;;16.15;;
51010;SDS011;37038;50.182;8.624;2023-05-23T04:01:17;17.65;;;15.95;;
51010;SDS011;37038;50.182;8.624;2023-05-23T04:04:04;21.45;;;18.63;;
51010;SDS011;37038;50.182;8.624;2023-05-23T04:06:52;19.83;;;17.70;;
51010;SDS011;37038;50.182;8.624;2023-05-23T04:09:40;22.58;;;18.33;;
51010;SDS011;37038;50.182;8.624;2023-05-23T04:12:28;23.35;;;19.92;;
51010;SDS011;37038;50.182;8.624;2023-05-23T04:15:18;22.20;;;19.85;;
51010;SDS011;37038;50.182;8.624;2023-05-23T04:18:07;23.42;;;20.92;;
51010;SDS011;37038;50.182;8.624;2023-05-23T04:20:56;22.05;;;19.80;;
51010;SDS011;37038;50.182;8.624;2023-05-23T04:23:44;26.27;;;22.30;;
51010;SDS011;37038;50.182;8.624;2023-05-23T04:26:32;27.17;;;21.95;;
51010;SDS011;37038;50.182;8.624;2023-05-23T04:29:19;23.58;;;21.08;;
51010;SDS011;37038;50.182;8.624;2023-05-23T04:32:08;26.48;;;23.35;;
51010;SDS011;37038;50.182;8.624;2023-05-23T04:34:56;26.73;;;23.88;;
51010;SDS011;37038;50.182;8.624;2023-05-23T04:37:47;27.77;;;24.85;;
51010;SDS011;37038;50.182;8.624;2023-05-23T04:40:35;26.52;;;23.67;;
51010;SDS011;37038;50.182;8.624;2023-05-23T04:43:23;30.30;;;26.45;;
51010;SDS011;37038;50.182;8.624;2023-05-23T04:46:12;30.73;;;27.42;;
51010;SDS011;37038;50.182;8.624;2023-05-23T04:49:00;30.55;;;27.35;;
51010;SDS011;37038;50.182;8.624;2023-05-23T04:51:48;33.63;;;30.33;;
51010;SDS011;37038;50.182;8.624;2023-05-23T04:54:36;29.63;;;26.52;;
51010;SDS011;37038;50.182;8.624;2023-05-23T04:57:26;29.75;;;26.85;;
51010;SDS011;37038;50.182;8.624;2023-05-23T05:00:15;31.45;;;28.15;;
51010;SDS011;37038;50.182;8.624;2023-05-23T05:03:05;32.00;;;28.70;;
51010;SDS011;37038;50.182;8.624;2023-05-23T05:05:56;31.65;;;28.27;;
51010;SDS011;37038;50.182;8.624;2023-05-23T05:08:46;29.45;;;26.40;;
51010;SDS011;37038;50.182;8.624;2023-05-23T05:11:34;30.80;;;27.65;;
51010;SDS011;37038;50.182;8.624;2023-05-23T05:14:24;25.92;;;23.17;;
51010;SDS011;37038;50.182;8.624;2023-05-23T05:17:13;25.02;;;22.52;;
51010;SDS011;37038;50.182;8.624;2023-05-23T05:20:01;25.23;;;22.50;;
51010;SDS011;37038;50.182;8.624;2023-05-23T05:22:57;24.67;;;22.25;;
51010;SDS011;37038;50.182;8.624;2023-05-23T05:25:45;24.20;;;21.60;;
51010;SDS011;37038;50.182;8.624;2023-05-23T05:28:32;26.10;;;23.48;;
51010;SDS011;37038;50.182;8.624;2023-05-23T05:31:20;26.55;;;23.88;;
51010;SDS011;37038;50.182;8.624;2023-05-23T05:34:08;23.00;;;20.60;;
51010;SDS011;37038;50.182;8.624;2023-05-23T05:36:55;19.98;;;18.10;;
51010;SDS011;37038;50.182;8.624;2023-05-23T05:39:46;19.42;;;17.52;;
51010;SDS011;37038;50.182;8.624;2023-05-23T05:42:33;18.00;;;16.05;;
51010;SDS011;37038;50.182;8.624;2023-05-23T05:45:21;18.42;;;16.58;;
51010;SDS011;37038;50.182;8.624;2023-05-23T05:48:09;18.02;;;16.33;;
51010;SDS011;37038;50.182;8.624;2023-05-23T05:50:59;17.90;;;16.10;;
51010;SDS011;37038;50.182;8.624;2023-05-23T05:53:47;15.65;;;14.15;;
51010;SDS011;37038;50.182;8.624;2023-05-23T05:56:35;15.07;;;13.68;;
51010;SDS011;37038;50.182;8.624;2023-05-23T05:59:23;19.35;;;15.70;;
51010;SDS011;37038;50.182;8.624;2023-05-23T06:02:10;17.30;;;15.45;;
51010;SDS011;37038;50.182;8.624;2023-05-23T06:04:58;16.23;;;14.82;;
51010;SDS011;37038;50.182;8.624;2023-05-23T06:07:46;16.48;;;14.77;;
51010;SDS011;37038;50.182;8.624;2023-05-23T06:10:36;17.38;;;15.40;;
51010;SDS011;37038;50.182;8.624;2023-05-23T06:13:26;15.52;;;13.95;;
51010;SDS011;37038;50.182;8.624;2023-05-23T06:16:13;14.80;;;13.50;;
51010;SDS011;37038;50.182;8.624;2023-05-23T06:19:01;14.90;;;13.50;;
51010;SDS011;37038;50.182;8.624;2023-05-23T06:21:51;15.85;;;14.30;;
51010;SDS011;37038;50.182;8.624;2023-05-23T06:24:39;15.30;;;13.88;;
51010;SDS011;37038;50.182;8.624;2023-05-23T06:27:26;12.90;;;11.80;;
51010;SDS011;37038;50.182;8.624;2023-05-23T06:30:14;14.75;;;13.32;;
51010;SDS011;37038;50.182;8.624;2023-05-23T06:33:02;13.05;;;11.85;;
51010;SDS011;37038;50.182;8.624;2023-05-23T06:35:50;12.82;;;10.52;;
51010;SDS011;37038;50.182;8.624;2023-05-23T06:38:37;10.57;;;9.60;;
51010;SDS011;37038;50.182;8.624;2023-05-23T06:41:25;11.73;;;10.55;;
51010;SDS011;37038;50.182;8.624;2023-05-23T06:44:13;10.95;;;9.85;;
51010;SDS011;37038;50.182;8.624;2023-05-23T06:47:01;9.40;;;8.50;;
51010;SDS011;37038;50.182;8.624;2023-05-23T06:49:52;10.45;;;9.40;;
51010;SDS011;37038;50.182;8.624;2023-05-23T06:52:39;9.82;;;8.45;;
51010;SDS011;37038;50.182;8.624;2023-05-23T06:55:30;8.15;;;7.45;;
51010;SDS011;37038;50.182;8.624;2023-05-23T06:58:21;7.63;;;7.03;;
51010;SDS011;37038;50.182;8.624;2023-05-23T07:01:12;7.90;;;7.20;;
51010;SDS011;37038;50.182;8.624;2023-05-23T07:04:04;6.35;;;5.28;;
51010;SDS011;37038;50.182;8.624;2023-05-23T07:06:53;6.55;;;5.95;;
51010;SDS011;37038;50.182;8.624;2023-05-23T07:09:42;7.43;;;6.10;;
51010;SDS011;37038;50.182;8.624;2023-05-23T07:12:30;5.93;;;5.32;;
51010;SDS011;37038;50.182;8.624;2023-05-23T07:15:20;5.75;;;5.18;;
51010;SDS011;37038;50.182;8.624;2023-05-23T07:18:08;5.53;;;5.13;;
51010;SDS011;37038;50.182;8.624;2023-05-23T07:20:55;5.93;;;5.43;;
51010;SDS011;37038;50.182;8.624;2023-05-23T07:23:43;6.63;;;5.85;;
51010;SDS011;37038;50.182;8.624;2023-05-23T07:26:31;6.70;;;6.10;;
51010;SDS011;37038;50.182;8.624;2023-05-23T07:29:19;6.68;;;6.18;;
51010;SDS011;37038;50.182;8.624;2023-05-23T07:32:06;6.30;;;5.80;;
51010;SDS011;37038;50.182;8.624;2023-05-23T07:34:54;6.22;;;5.72;;
51010;SDS011;37038;50.182;8.624;2023-05-23T07:37:44;6.38;;;5.78;;
51010;SDS011;37038;50.182;8.624;2023-05-23T07:40:34;6.80;;;5.93;;
51010;SDS011;37038;50.182;8.624;2023-05-23T07:43:21;8.13;;;7.35;;
51010;SDS011;37038;50.182;8.624;2023-05-23T07:46:09;8.15;;;7.43;;
51010;SDS011;37038;50.182;8.624;2023-05-23T07:48:57;7.13;;;6.53;;
51010;SDS011;37038;50.182;8.624;2023-05-23T07:51:45;8.40;;;7.60;;
51010;SDS011;37038;50.182;8.624;2023-05-23T07:54:33;7.25;;;6.55;;
51010;SDS011;37038;50.182;8.624;2023-05-23T07:57:20;6.68;;;6.18;;
51010;SDS011;37038;50.182;8.624;2023-05-23T08:00:08;7.45;;;6.75;;
51010;SDS011;37038;50.182;8.624;2023-05-23T08:02:59;7.20;;;6.53;;
51010;SDS011;37038;50.182;8.624;2023-05-23T08:05:47;7.18;;;6.50;;
51010;SDS011;37038;50.182;8.624;2023-05-23T08:08:35;7.22;;;6.55;;
51010;SDS011;37038;50.182;8.624;2023-05-23T08:11:23;6.10;;;5.60;;
51010;SDS011;37038;50.182;8.624;2023-05-23T08:14:13;6.20;;;5.68;;
51010;SDS011;37038;50.182;8.624;2023-05-23T08:17:01;6.30;;;5.80;;
51010;SDS011;37038;50.182;8.624;2023-05-23T08:19:49;6.10;;;5.50;;
51010;SDS011;37038;50.182;8.624;2023-05-23T08:22:36;5.30;;;4.90;;
51010;SDS011;37038;50.182;8.624;2023-05-23T08:25:25;7.28;;;4.53;;
51010;SDS011;37038;50.182;8.624;2023-05-23T08:28:16;5.07;;;4.47;;
51010;SDS011;37038;50.182;8.624;2023-05-23T08:31:04;9.82;;;4.78;;
51010;SDS011;37038;50.182;8.624;2023-05-23T08:33:53;5.07;;;4.68;;
51010;SDS011;37038;50.182;8.624;2023-05-23T08:36:41;8.20;;;4.88;;
51010;SDS011;37038;50.182;8.624;2023-05-23T08:39:30;7.55;;;4.43;;
51010;SDS011;37038;50.182;8.624;2023-05-23T08:42:20;3.90;;;3.60;;
51010;SDS011;37038;50.182;8.624;2023-05-23T08:45:08;3.80;;;3.50;;
51010;SDS011;37038;50.182;8.624;2023-05-23T08:47:56;3.88;;;3.58;;
51010;SDS011;37038;50.182;8.624;2023-05-23T08:50:47;4.80;;;3.92;;
51010;SDS011;37038;50.182;8.624;2023-05-23T08:53:37;3.83;;;3.25;;
51010;SDS011;37038;50.182;8.624;2023-05-23T08:56:27;4.10;;;3.80;;
51010;SDS011;37038;50.182;8.624;2023-05-23T08:59:14;5.32;;;3.50;;
51010;SDS011;37038;50.182;8.624;2023-05-23T09:02:03;4.43;;;3.90;;
51010;SDS011;37038;50.182;8.624;2023-05-23T09:07:45;7.45;;;5.28;;
51010;SDS011;37038;50.182;8.624;2023-05-23T09:10:35;6.53;;;4.18;;
51010;SDS011;37038;50.182;8.624;2023-05-23T09:13:23;7.45;;;4.85;;
51010;SDS011;37038;50.182;8.624;2023-05-23T09:16:14;5.45;;;4.65;;
51010;SDS011;37038;50.182;8.624;2023-05-23T09:19:10;6.75;;;4.18;;
51010;SDS011;37038;50.182;8.624;2023-05-23T09:22:01;5.88;;;4.30;;
51010;SDS011;37038;50.182;8.624;2023-05-23T09:24:50;5.50;;;4.53;;
51010;SDS011;37038;50.182;8.624;2023-05-23T09:27:39;4.93;;;4.25;;
51010;SDS011;37038;50.182;8.624;2023-05-23T09:30:27;4.72;;;4.18;;
51010;SDS011;37038;50.182;8.624;2023-05-23T09:33:20;5.93;;;5.13;;
51010;SDS011;37038;50.182;8.624;2023-05-23T09:36:11;4.22;;;3.83;;
51010;SDS011;37038;50.182;8.624;2023-05-23T09:39:02;4.95;;;4.45;;
51010;SDS011;37038;50.182;8.624;2023-05-23T09:41:53;4.45;;;4.05;;
51010;SDS011;37038;50.182;8.624;2023-05-23T09:44:41;5.45;;;3.50;;
51010;SDS011;37038;50.182;8.624;2023-05-23T09:47:29;3.60;;;3.25;;
51010;SDS011;37038;50.182;8.624;2023-05-23T09:50:20;4.40;;;4.00;;
51010;SDS011;37038;50.182;8.624;2023-05-23T09:53:08;4.22;;;3.80;;
51010;SDS011;37038;50.182;8.624;2023-05-23T09:55:56;4.45;;;3.63;;
51010;SDS011;37038;50.182;8.624;2023-05-23T09:58:46;5.15;;;4.40;;
51010;SDS011;37038;50.182;8.624;2023-05-23T10:01:34;5.00;;;4.07;;
51010;SDS011;37038;50.182;8.624;2023-05-23T10:04:22;4.70;;;4.30;;
51010;SDS011;37038;50.182;8.624;2023-05-23T10:07:12;4.93;;;4.53;;
51010;SDS011;37038;50.182;8.624;2023-05-23T10:10:03;8.50;;;4.90;;
51010;SDS011;37038;50.182;8.624;2023-05-23T10:12:54;6.20;;;4.72;;
51010;SDS011;37038;50.182;8.624;2023-05-23T10:15:44;5.25;;;4.38;;
51010;SDS011;37038;50.182;8.624;2023-05-23T10:18:34;4.78;;;4.15;;
51010;SDS011;37038;50.182;8.624;2023-05-23T10:21:29;4.15;;;3.80;;
51010;SDS011;37038;50.182;8.624;2023-05-23T10:24:26;4.25;;;3.85;;
51010;SDS011;37038;50.182;8.624;2023-05-23T10:27:15;4.32;;;3.85;;
51010;SDS011;37038;50.182;8.624;2023-05-23T10:30:02;4.55;;;4.15;;
51010;SDS011;37038;50.182;8.624;2023-05-23T10:32:52;5.18;;;4.50;;
51010;SDS011;37038;50.182;8.624;2023-05-23T10:35:49;8.10;;;5.10;;
51010;SDS011;37038;50.182;8.624;2023-05-23T10:42:14;5.68;;;5.18;;
51010;SDS011;37038;50.182;8.624;2023-05-23T10:45:18;5.80;;;5.20;;
51010;SDS011;37038;50.182;8.624;2023-05-23T10:48:21;6.90;;;5.55;;
51010;SDS011;37038;50.182;8.624;2023-05-23T10:51:19;5.78;;;4.95;;
51010;SDS011;37038;50.182;8.624;2023-05-23T10:54:11;5.55;;;5.15;;
51010;SDS011;37038;50.182;8.624;2023-05-23T10:57:02;5.93;;;5.30;;
51010;SDS011;37038;50.182;8.624;2023-05-23T10:59:51;8.20;;;5.10;;
51010;SDS011;37038;50.182;8.624;2023-05-23T11:02:40;6.10;;;5.28;;
51010;SDS011;37038;50.182;8.624;2023-05-23T11:05:41;5.70;;;3.95;;
51010;SDS011;37038;50.182;8.624;2023-05-23T11:08:39;4.85;;;4.45;;
51010;SDS011;37038;50.182;8.624;2023-05-23T11:17:34;6.07;;;5.47;;
51010;SDS011;37038;50.182;8.624;2023-05-23T11:20:25;4.15;;;3.85;;
51010;SDS011;37038;50.182;8.624;2023-05-23T11:23:14;4.38;;;3.97;;
51010;SDS011;37038;50.182;8.624;2023-05-23T11:26:02;4.00;;;3.63;;
51010;SDS011;37038;50.182;8.624;2023-05-23T11:28:56;3.50;;;3.20;;
51010;SDS011;37038;50.182;8.624;2023-05-23T11:31:45;6.00;;;3.60;;
51010;SDS011;37038;50.182;8.624;2023-05-23T11:34:32;3.50;;;3.20;;
51010;SDS011;37038;50.182;8.624;2023-05-23T11:37:21;3.60;;;3.30;;
51010;SDS011;37038;50.182;8.624;2023-05-23T11:43:22;4.95;;;2.40;;
51010;SDS011;37038;50.182;8.624;2023-05-23T11:46:10;2.20;;;2.00;;
51010;SDS011;37038;50.182;8.624;2023-05-23T11:49:01;2.97;;;2.20;;
51010;SDS011;37038;50.182;8.624;2023-05-23T11:52:03;2.30;;;2.10;;
51010;SDS011;37038;50.182;8.624;2023-05-23T11:54:54;2.53;;;2.00;;
51010;SDS011;37038;50.182;8.624;2023-05-23T11:57:55;2.97;;;2.10;;
51010;SDS011;37038;50.182;8.624;2023-05-23T12:00:47;4.22;;;2.40;;
51010;SDS011;37038;50.182;8.624;2023-05-23T12:03:47;2.65;;;2.15;;
51010;SDS011;37038;50.182;8.624;2023-05-23T12:06:39;1.73;;;1.63;;
51010;SDS011;37038;50.182;8.624;2023-05-23T12:09:29;2.15;;;1.95;;
51010;SDS011;37038;50.182;8.624;2023-05-23T12:12:17;2.47;;;1.60;;
51010;SDS011;37038;50.182;8.624;2023-05-23T12:15:09;4.15;;;1.73;;
51010;SDS011;37038;50.182;8.624;2023-05-23T12:17:57;2.00;;;1.80;;
51010;SDS011;37038;50.182;8.624;2023-05-23T12:20:47;5.82;;;2.08;;
51010;SDS011;37038;50.182;8.624;2023-05-23T12:23:36;3.55;;;1.73;;
51010;SDS011;37038;50.182;8.624;2023-05-23T12:26:25;2.63;;;1.70;;
51010;SDS011;37038;50.182;8.624;2023-05-23T12:29:13;2.08;;;1.60;;
51010;SDS011;37038;50.182;8.624;2023-05-23T12:32:02;2.72;;;1.83;;
51010;SDS011;37038;50.182;8.624;2023-05-23T12:34:50;4.47;;;2.05;;
51010;SDS011;37038;50.182;8.624;2023-05-23T12:37:44;2.50;;;2.30;;
51010;SDS011;37038;50.182;8.624;2023-05-23T12:40:34;3.45;;;2.30;;
51010;SDS011;37038;50.182;8.624;2023-05-23T12:43:22;2.40;;;2.20;;
51010;SDS011;37038;50.182;8.624;2023-05-23T12:46:10;2.70;;;2.17;;
51010;SDS011;37038;50.182;8.624;2023-05-23T12:48:57;2.40;;;2.20;;
51010;SDS011;37038;50.182;8.624;2023-05-23T12:51:45;2.28;;;2.15;;
51010;SDS011;37038;50.182;8.624;2023-05-23T12:54:33;2.95;;;2.10;;
51010;SDS011;37038;50.182;8.624;2023-05-23T12:57:21;2.95;;;2.17;;
51010;SDS011;37038;50.182;8.624;2023-05-23T13:00:09;2.85;;;2.40;;
51010;SDS011;37038;50.182;8.624;2023-05-23T13:02:59;2.90;;;2.63;;
51010;SDS011;37038;50.182;8.624;2023-05-23T13:05:47;3.05;;;2.50;;
51010;SDS011;37038;50.182;8.624;2023-05-23T13:08:36;3.50;;;3.20;;
51010;SDS011;37038;50.182;8.624;2023-05-23T13:11:23;4.15;;;3.67;;
51010;SDS011;37038;50.182;8.624;2023-05-23T13:14:11;4.50;;;3.50;;
51010;SDS011;37038;50.182;8.624;2023-05-23T13:16:59;4.88;;;3.50;;
51010;SDS011;37038;50.182;8.624;2023-05-23T13:19:47;7.93;;;3.63;;
51010;SDS011;37038;50.182;8.624;2023-05-23T13:22:35;5.22;;;3.75;;
51010;SDS011;37038;50.182;8.624;2023-05-23T13:25:23;4.75;;;4.32;;
51010;SDS011;37038;50.182;8.624;2023-05-23T13:28:12;4.95;;;4.03;;
51010;SDS011;37038;50.182;8.624;2023-05-23T13:31:00;4.90;;;4.47;;
51010;SDS011;37038;50.182;8.624;2023-05-23T13:33:49;4.93;;;4.18;;
51010;SDS011;37038;50.182;8.624;2023-05-23T13:36:37;7.97;;;4.70;;
51010;SDS011;37038;50.182;8.624;2023-05-23T13:39:25;4.32;;;3.97;;
51010;SDS011;37038;50.182;8.624;2023-05-23T13:42:13;5.47;;;4.93;;
51010;SDS011;37038;50.182;8.624;2023-05-23T13:45:01;7.32;;;5.03;;
51010;SDS011;37038;50.182;8.624;2023-05-23T13:47:48;7.20;;;4.47;;
51010;SDS011;37038;50.182;8.624;2023-05-23T13:50:36;5.13;;;4.38;;
51010;SDS011;37038;50.182;8.624;2023-05-23T13:53:27;4.93;;;4.43;;
51010;SDS011;37038;50.182;8.624;2023-05-23T13:56:15;6.68;;;4.78;;
51010;SDS011;37038;50.182;8.624;2023-05-23T13:59:03;4.97;;;4.55;;
51010;SDS011;37038;50.182;8.624;2023-05-23T14:01:51;7.07;;;4.82;;
51010;SDS011;37038;50.182;8.624;2023-05-23T14:04:39;6.85;;;5.72;;
51010;SDS011;37038;50.182;8.624;2023-05-23T14:07:30;5.88;;;5.20;;
51010;SDS011;37038;50.182;8.624;2023-05-23T14:10:18;7.85;;;5.93;;
51010;SDS011;37038;50.182;8.624;2023-05-23T14:13:06;7.57;;;6.32;;
51010;SDS011;37038;50.182;8.624;2023-05-23T14:15:54;9.07;;;6.60;;
51010;SDS011;37038;50.182;8.624;2023-05-23T14:18:42;7.68;;;6.10;;
51010;SDS011;37038;50.182;8.624;2023-05-23T14:21:32;7.93;;;5.80;;
51010;SDS011;37038;50.182;8.624;2023-05-23T14:24:19;7.15;;;6.45;;
51010;SDS011;37038;50.182;8.624;2023-05-23T14:27:08;9.10;;;6.00;;
51010;SDS011;37038;50.182;8.624;2023-05-23T14:29:57;7.47;;;6.68;;
51010;SDS011;37038;50.182;8.624;2023-05-23T14:32:45;8.80;;;6.13;;
51010;SDS011;37038;50.182;8.624;2023-05-23T14:35:33;9.55;;;7.30;;
51010;SDS011;37038;50.182;8.624;2023-05-23T14:38:20;8.73;;;6.13;;
51010;SDS011;37038;50.182;8.624;2023-05-23T14:41:08;8.68;;;6.30;;
51010;SDS011;37038;50.182;8.624;2023-05-23T14:43:56;8.25;;;5.95;;
51010;SDS011;37038;50.182;8.624;2023-05-23T14:46:45;7.30;;;6.25;;
51010;SDS011;37038;50.182;8.624;2023-05-23T14:49:38;8.27;;;6.15;;
51010;SDS011;37038;50.182;8.624;2023-05-23T14:52:26;6.75;;;5.57;;
51010;SDS011;37038;50.182;8.624;2023-05-23T14:55:16;8.10;;;6.20;;
51010;SDS011;37038;50.182;8.624;2023-05-23T14:58:04;10.52;;;6.63;;
51010;SDS011;37038;50.182;8.624;2023-05-23T15:00:52;14.77;;;6.70;;
51010;SDS011;37038;50.182;8.624;2023-05-23T15:03:40;7.53;;;6.70;;
51010;SDS011;37038;50.182;8.624;2023-05-23T15:06:27;12.27;;;6.40;;
51010;SDS011;37038;50.182;8.624;2023-05-23T15:09:16;6.45;;;5.85;;
51010;SDS011;37038;50.182;8.624;2023-05-23T15:12:04;9.60;;;6.28;;
51010;SDS011;37038;50.182;8.624;2023-05-23T15:14:53;7.63;;;5.85;;
51010;SDS011;37038;50.182;8.624;2023-05-23T15:17:49;6.30;;;5.80;;
51010;SDS011;37038;50.182;8.624;2023-05-23T15:20:38;10.30;;;6.60;;
51010;SDS011;37038;50.182;8.624;2023-05-23T15:23:26;7.65;;;6.53;;
51010;SDS011;37038;50.182;8.624;2023-05-23T15:26:14;8.52;;;5.97;;
51010;SDS011;37038;50.182;8.624;2023-05-23T15:29:02;9.20;;;6.47;;
51010;SDS011;37038;50.182;8.624;2023-05-23T15:31:50;8.18;;;5.82;;
51010;SDS011;37038;50.182;8.624;2023-05-23T15:34:38;5.22;;;4.72;;
51010;SDS011;37038;50.182;8.624;2023-05-23T15:37:26;8.18;;;4.95;;
51010;SDS011;37038;50.182;8.624;2023-05-23T15:40:14;5.47;;;4.80;;
51010;SDS011;37038;50.182;8.624;2023-05-23T15:43:02;7.13;;;4.35;;
51010;SDS011;37038;50.182;8.624;2023-05-23T15:45:50;6.85;;;4.45;;
51010;SDS011;37038;50.182;8.624;2023-05-23T15:48:38;6.70;;;4.53;;
51010;SDS011;37038;50.182;8.624;2023-05-23T15:51:29;7.55;;;5.00;;
51010;SDS011;37038;50.182;8.624;2023-05-23T15:54:18;5.20;;;4.03;;
51010;SDS011;37038;50.182;8.624;2023-05-23T15:57:06;8.63;;;4.30;;
51010;SDS011;37038;50.182;8.624;2023-05-23T15:59:53;6.05;;;4.57;;
51010;SDS011;37038;50.182;8.624;2023-05-23T16:02:41;7.10;;;4.57;;
51010;SDS011;37038;50.182;8.624;2023-05-23T16:05:29;8.98;;;5.25;;
51010;SDS011;37038;50.182;8.624;2023-05-23T16:08:16;6.45;;;4.60;;
51010;SDS011;37038;50.182;8.624;2023-05-23T16:11:04;6.40;;;4.25;;
51010;SDS011;37038;50.182;8.624;2023-05-23T16:13:53;4.45;;;3.70;;
51010;SDS011;37038;50.182;8.624;2023-05-23T16:16:41;5.18;;;4.07;;
51010;SDS011;37038;50.182;8.624;2023-05-23T16:19:31;12.32;;;4.15;;
51010;SDS011;37038;50.182;8.624;2023-05-23T16:22:19;6.32;;;4.10;;
51010;SDS011;37038;50.182;8.624;2023-05-23T16:25:09;4.35;;;3.83;;
51010;SDS011;37038;50.182;8.624;2023-05-23T16:27:57;3.83;;;3.53;;
51010;SDS011;37038;50.182;8.624;2023-05-23T16:30:45;8.07;;;3.58;;
51010;SDS011;37038;50.182;8.624;2023-05-23T16:33:33;4.25;;;3.42;;
51010;SDS011;37038;50.182;8.624;2023-05-23T16:36:21;5.15;;;3.40;;
51010;SDS011;37038;50.182;8.624;2023-05-23T16:39:12;6.18;;;3.67;;
51010;SDS011;37038;50.182;8.624;2023-05-23T16:42:08;5.35;;;3.28;;
51010;SDS011;37038;50.182;8.624;2023-05-23T16:44:55;5.70;;;3.63;;
51010;SDS011;37038;50.182;8.624;2023-05-23T16:47:43;5.20;;;3.33;;
51010;SDS011;37038;50.182;8.624;2023-05-23T16:50:31;4.75;;;3.75;;
51010;SDS011;37038;50.182;8.624;2023-05-23T16:53:19;6.40;;;4.13;;
51010;SDS011;37038;50.182;8.624;2023-05-23T16:56:07;4.75;;;3.42;;
51010;SDS011;37038;50.182;8.624;2023-05-23T16:58:56;4.47;;;3.72;;
51010;SDS011;37038;50.182;8.624;2023-05-23T17:01:44;8.32;;;4.82;;
51010;SDS011;37038;50.182;8.624;2023-05-23T17:04:32;5.15;;;4.10;;
51010;SDS011;37038;50.182;8.624;2023-05-23T17:07:20;9.68;;;4.50;;
51010;SDS011;37038;50.182;8.624;2023-05-23T17:10:08;9.18;;;4.82;;
51010;SDS011;37038;50.182;8.624;2023-05-23T17:12:56;6.60;;;3.60;;
51010;SDS011;37038;50.182;8.624;2023-05-23T17:15:44;7.00;;;4.38;;